createdAt,value
2022-12-18T00:00:25.508Z,101291.19
2022-12-18T00:02:55.466Z,101293.69
2022-12-18T00:05:24.274Z,101289.16
2022-12-18T00:07:52.739Z,101277.47
2022-12-18T00:10:21.273Z,101272.25
2022-12-18T00:12:49.757Z,101268.56
2022-12-18T00:15:18.258Z,101278.22
2022-12-18T00:17:46.926Z,101275.66
2022-12-18T00:20:22.159Z,101278.22
2022-12-18T00:22:50.541Z,101271.16
2022-12-18T00:25:19.126Z,101266.75
2022-12-18T00:27:47.612Z,101275.75
2022-12-18T00:30:16.297Z,101274.03
2022-12-18T00:32:44.671Z,101267.00
2022-12-18T00:35:13.044Z,101268.88
2022-12-18T00:37:44.049Z,101274.34
2022-12-18T00:40:13.498Z,101280.59
2022-12-18T00:42:58.948Z,101276.38
2022-12-18T00:45:28.413Z,101278.25
2022-12-18T00:47:57.459Z,101270.31
2022-12-18T00:50:27.183Z,101259.84
2022-12-18T00:52:57.045Z,101245.81
2022-12-18T00:55:25.329Z,101230.88
2022-12-18T00:57:54.525Z,101222.19
2022-12-18T01:00:26.395Z,101216.09
2022-12-18T01:02:55.002Z,101209.94
2022-12-18T01:05:23.398Z,101212.59
2022-12-18T01:07:51.774Z,101221.25
2022-12-18T01:10:21.726Z,101220.25
2022-12-18T01:12:52.813Z,101219.13
2022-12-18T01:15:21.393Z,101227.72
2022-12-18T01:17:49.460Z,101234.41
2022-12-18T01:20:18.147Z,101226.13
2022-12-18T01:22:47.778Z,101223.13
2022-12-18T01:25:15.850Z,101221.13
2022-12-18T01:27:45.558Z,101212.81
2022-12-18T01:30:14.451Z,101230.09
2022-12-18T01:32:42.818Z,101221.91
2022-12-18T01:35:11.246Z,101218.06
2022-12-18T01:37:39.352Z,101211.47
2022-12-18T01:40:09.613Z,101204.97
2022-12-18T01:42:38.007Z,101192.41
2022-12-18T01:45:24.805Z,101185.09
2022-12-18T01:47:56.149Z,101180.31
2022-12-18T01:50:29.536Z,101169.50
2022-12-18T01:53:00.715Z,101178.06
2022-12-18T01:55:32.315Z,101163.88
2022-12-18T01:58:02.903Z,101157.66
2022-12-18T02:00:33.535Z,101154.78
2022-12-18T02:03:01.976Z,101151.88
2022-12-18T02:05:40.599Z,101141.25
2022-12-18T02:08:15.526Z,101150.75
2022-12-18T02:10:55.494Z,101145.28
2022-12-18T02:13:35.117Z,101151.34
2022-12-18T02:16:14.050Z,101143.31
2022-12-18T02:18:48.086Z,101136.94
2022-12-18T02:21:31.330Z,101138.00
2022-12-18T02:24:10.046Z,101153.66
2022-12-18T02:26:46.194Z,101160.41
2022-12-18T02:29:17.751Z,101157.75
2022-12-18T02:31:51.968Z,101162.97
2022-12-18T02:34:23.351Z,101176.75
2022-12-18T02:36:53.505Z,101166.06
2022-12-18T02:39:24.340Z,101150.88
2022-12-18T02:41:54.188Z,101156.97
2022-12-18T02:44:22.494Z,101167.28
2022-12-18T02:46:53.987Z,101170.81
2022-12-18T02:49:33.388Z,101167.38
2022-12-18T02:52:10.951Z,101160.19
2022-12-18T02:54:51.712Z,101157.28
2022-12-18T02:57:32.854Z,101148.50
2022-12-18T03:00:07.131Z,101146.63
2022-12-18T03:02:42.153Z,101142.19
2022-12-18T03:05:15.374Z,101145.41
2022-12-18T03:07:49.028Z,101134.69
2022-12-18T03:10:22.013Z,101126.72
2022-12-18T03:12:55.962Z,101121.22
2022-12-18T03:15:29.062Z,101103.53
2022-12-18T03:18:00.924Z,101087.69
2022-12-18T03:20:34.674Z,101082.47
2022-12-18T03:23:11.418Z,101075.53
2022-12-18T03:25:43.920Z,101070.31
2022-12-18T03:28:17.421Z,101070.16
2022-12-18T03:30:48.952Z,101062.19
2022-12-18T03:33:21.448Z,101060.16
2022-12-18T03:35:49.954Z,101065.13
2022-12-18T03:38:18.130Z,101055.91
2022-12-18T03:40:57.260Z,101060.09
2022-12-18T03:43:40.489Z,101049.47
2022-12-18T03:46:15.068Z,101041.19
2022-12-18T03:48:47.041Z,101032.28
2022-12-18T03:51:21.774Z,101021.44
2022-12-18T03:53:56.138Z,101005.19
2022-12-18T03:56:27.532Z,101012.97
2022-12-18T03:58:59.978Z,101003.00
2022-12-18T04:01:33.419Z,100994.81
2022-12-18T04:04:02.639Z,100996.44
2022-12-18T04:06:32.061Z,100987.31
2022-12-18T04:09:00.772Z,100980.75
2022-12-18T04:11:28.965Z,100974.34
2022-12-18T04:14:01.272Z,100981.19
2022-12-18T04:16:30.952Z,100975.69
2022-12-18T04:18:58.918Z,100950.66
2022-12-18T04:21:26.983Z,100951.44
2022-12-18T04:23:55.005Z,100938.22
2022-12-18T04:26:23.063Z,100951.22
2022-12-18T04:28:51.216Z,100944.31
2022-12-18T04:31:20.945Z,100932.72
2022-12-18T04:33:49.022Z,100939.53
2022-12-18T04:36:17.068Z,100940.38
2022-12-18T04:38:45.130Z,100935.50
2022-12-18T04:41:15.989Z,100933.81
2022-12-18T04:43:44.144Z,100942.53
2022-12-18T04:46:12.381Z,100937.00
2022-12-18T04:48:42.134Z,100928.91
2022-12-18T04:51:10.248Z,100943.66
2022-12-18T04:53:38.759Z,100938.94
2022-12-18T04:56:08.749Z,100917.75
2022-12-18T04:58:37.074Z,100912.31
2022-12-18T05:01:06.010Z,100912.97
2022-12-18T05:03:34.073Z,100909.34
2022-12-18T05:06:03.980Z,100913.84
2022-12-18T05:08:32.032Z,100913.72
2022-12-18T05:11:04.001Z,100907.66
2022-12-18T05:13:33.208Z,100901.59
2022-12-18T05:16:01.660Z,100899.56
2022-12-18T05:18:30.057Z,100897.88
2022-12-18T05:20:58.330Z,100889.16
2022-12-18T05:23:28.180Z,100896.03
2022-12-18T05:25:57.773Z,100895.31
2022-12-18T05:28:27.253Z,100890.84
2022-12-18T05:30:57.487Z,100885.53
2022-12-18T05:33:27.436Z,100887.22
2022-12-18T05:35:56.383Z,100886.25
2022-12-18T05:38:26.318Z,100892.44
2022-12-18T05:40:56.129Z,100887.22
2022-12-18T05:43:27.423Z,100879.13
2022-12-18T05:45:56.820Z,100879.53
2022-12-18T05:48:25.440Z,100890.19
2022-12-18T05:50:53.596Z,100892.75
2022-12-18T05:53:22.682Z,100892.84
2022-12-18T05:55:50.877Z,100894.00
2022-12-18T05:58:20.415Z,100895.28
2022-12-18T06:00:49.030Z,100883.78
2022-12-18T06:03:17.229Z,100903.38
2022-12-18T06:05:47.092Z,100889.22
2022-12-18T06:08:15.769Z,100898.38
2022-12-18T06:10:44.291Z,100886.97
2022-12-18T06:13:12.328Z,100875.47
2022-12-18T06:15:41.784Z,100863.13
2022-12-18T06:18:09.790Z,100871.09
2022-12-18T06:20:40.602Z,100865.91
2022-12-18T06:23:08.736Z,100850.91
2022-12-18T06:25:40.364Z,100849.09
2022-12-18T06:28:08.405Z,100856.94
2022-12-18T06:30:37.404Z,100863.13
2022-12-18T06:33:07.603Z,100873.69
2022-12-18T06:35:35.626Z,100892.31
2022-12-18T06:38:04.368Z,100884.31
2022-12-18T06:40:32.504Z,100873.56
2022-12-18T06:43:00.728Z,100861.13
2022-12-18T06:45:28.845Z,100851.31
2022-12-18T06:47:57.777Z,100845.88
2022-12-18T06:50:29.123Z,100824.72
2022-12-18T06:52:58.876Z,100791.94
2022-12-18T06:55:26.909Z,100778.75
2022-12-18T06:57:54.965Z,100767.25
2022-12-18T07:00:22.950Z,100770.75
2022-12-18T07:02:51.128Z,100769.16
2022-12-18T07:05:19.328Z,100756.16
2022-12-18T07:07:48.759Z,100759.78
2022-12-18T07:10:16.871Z,100765.22
2022-12-18T07:12:44.928Z,100760.75
2022-12-18T07:15:13.029Z,100766.06
2022-12-18T07:17:41.086Z,100767.78
2022-12-18T07:20:10.937Z,100764.06
2022-12-18T07:22:38.905Z,100756.94
2022-12-18T07:25:10.098Z,100755.00
2022-12-18T07:27:38.108Z,100753.84
2022-12-18T07:30:07.398Z,100735.22
2022-12-18T07:32:35.440Z,100741.25
2022-12-18T07:35:03.542Z,100732.31
2022-12-18T07:37:31.468Z,100724.34
2022-12-18T07:39:59.414Z,100695.19
2022-12-18T07:42:35.855Z,100689.97
2022-12-18T07:45:05.041Z,100688.16
2022-12-18T07:47:32.923Z,100702.44
2022-12-18T07:50:00.893Z,100699.97
2022-12-18T07:52:28.822Z,100705.19
2022-12-18T07:54:56.799Z,100690.19
2022-12-18T07:57:49.377Z,100683.16
2022-12-18T08:00:16.314Z,100680.63
2022-12-18T08:02:44.371Z,100683.16
2022-12-18T08:05:12.409Z,100678.81
2022-12-18T08:07:40.506Z,100662.72
2022-12-18T08:10:09.708Z,100653.69
2022-12-18T08:12:37.888Z,100651.78
2022-12-18T08:15:06.754Z,100656.03
2022-12-18T08:17:36.299Z,100657.72
2022-12-18T08:20:05.033Z,100648.56
2022-12-18T08:22:35.895Z,100635.16
2022-12-18T08:25:04.163Z,100626.09
2022-12-18T08:27:33.911Z,100613.66
2022-12-18T08:30:04.144Z,100611.72
2022-12-18T08:32:33.910Z,100599.91
2022-12-18T08:35:03.443Z,100584.66
2022-12-18T08:37:31.437Z,100579.44
2022-12-18T08:39:59.440Z,100575.69
2022-12-18T08:42:44.962Z,100584.44
2022-12-18T08:45:13.455Z,100568.34
2022-12-18T08:47:41.565Z,100565.47
2022-12-18T08:50:13.140Z,100585.47
2022-12-18T08:52:41.256Z,100590.66
2022-12-18T08:55:10.859Z,100583.53
2022-12-18T08:57:39.015Z,100577.25
2022-12-18T09:00:08.471Z,100589.59
2022-12-18T09:02:36.602Z,100593.97
2022-12-18T09:05:05.567Z,100595.66
2022-12-18T09:07:35.107Z,100586.47
2022-12-18T09:10:03.128Z,100575.50
2022-12-18T09:12:31.142Z,100571.84
2022-12-18T09:14:59.112Z,100557.50
2022-12-18T09:17:27.361Z,100543.22
2022-12-18T09:19:55.637Z,100535.03
2022-12-18T09:22:23.688Z,100524.13
2022-12-18T09:24:53.196Z,100531.63
2022-12-18T09:27:21.222Z,100534.81
2022-12-18T09:29:49.427Z,100530.09
2022-12-18T09:32:22.359Z,100521.75
2022-12-18T09:34:50.825Z,100508.22
2022-12-18T09:37:19.156Z,100506.25
2022-12-18T09:39:47.159Z,100497.06
2022-12-18T09:42:23.428Z,100488.59
2022-12-18T09:44:53.284Z,100472.50
2022-12-18T09:47:28.185Z,100455.19
2022-12-18T09:50:00.785Z,100446.00
2022-12-18T09:52:34.770Z,100442.97
2022-12-18T09:55:08.666Z,100431.06
2022-12-18T09:57:43.533Z,100436.88
2022-12-18T10:00:19.840Z,100439.19
2022-12-18T10:02:48.664Z,100442.31
2022-12-18T10:05:23.009Z,100417.88
2022-12-18T10:08:02.761Z,100420.88
2022-12-18T10:10:40.675Z,100416.72
2022-12-18T10:13:19.993Z,100410.78
2022-12-18T10:15:59.286Z,100413.06
2022-12-18T10:18:40.902Z,100404.69
2022-12-18T10:21:15.831Z,100398.84
2022-12-18T10:23:54.076Z,100389.63
2022-12-18T10:26:22.298Z,100391.69
2022-12-18T10:28:53.820Z,100377.94
2022-12-18T10:31:24.561Z,100375.75
2022-12-18T10:33:53.417Z,100378.75
2022-12-18T10:36:22.729Z,100358.81
2022-12-18T10:38:52.125Z,100365.50
2022-12-18T10:41:28.797Z,100363.28
2022-12-18T10:44:21.454Z,100359.09
2022-12-18T10:46:53.161Z,100355.19
2022-12-18T10:49:24.883Z,100351.03
2022-12-18T10:52:06.245Z,100343.19
2022-12-18T10:54:37.386Z,100335.63
2022-12-18T10:57:19.713Z,100341.91
2022-12-18T10:59:56.238Z,100334.34
2022-12-18T11:02:30.546Z,100330.13
2022-12-18T11:04:58.753Z,100319.75
2022-12-18T11:07:26.925Z,100311.66
2022-12-18T11:10:03.096Z,100309.41
2022-12-18T11:12:31.328Z,100301.25
2022-12-18T11:15:01.172Z,100297.06
2022-12-18T11:17:32.406Z,100288.59
2022-12-18T11:20:02.129Z,100297.63
2022-12-18T11:22:32.319Z,100285.00
2022-12-18T11:27:55.596Z,100276.81
2022-12-18T11:30:27.698Z,100265.56
2022-12-18T11:32:59.155Z,100254.75
2022-12-18T11:35:40.320Z,100248.84
2022-12-18T11:38:18.014Z,100247.00
2022-12-18T11:40:51.415Z,100246.44
2022-12-18T11:43:24.187Z,100240.25
2022-12-18T11:45:57.346Z,100229.28
2022-12-18T11:48:29.503Z,100230.66
2022-12-18T11:50:59.388Z,100205.47
2022-12-18T11:53:28.570Z,100191.94
2022-12-18T11:56:10.587Z,100197.00
2022-12-18T11:58:49.406Z,100191.38
2022-12-18T12:01:44.534Z,100189.22
2022-12-18T12:04:43.845Z,100181.09
2022-12-18T12:07:25.117Z,100177.09
2022-12-18T12:10:03.553Z,100169.78
2022-12-18T12:12:50.357Z,100166.81
2022-12-18T12:15:33.808Z,100166.38
2022-12-18T12:18:14.296Z,100172.28
2022-12-18T12:20:52.655Z,100152.53
2022-12-18T12:23:38.159Z,100148.03
2022-12-18T12:26:11.460Z,100147.91
2022-12-18T12:29:04.050Z,100148.59
2022-12-18T12:31:49.953Z,100135.34
2022-12-18T12:34:25.208Z,100133.34
2022-12-18T12:37:06.285Z,100129.56
2022-12-18T12:39:38.200Z,100125.44
2022-12-18T12:42:25.458Z,100127.97
2022-12-18T12:45:01.799Z,100121.09
2022-12-18T12:47:35.598Z,100118.09
2022-12-18T12:50:09.402Z,100123.16
2022-12-18T12:52:42.226Z,100117.66
2022-12-18T12:55:18.545Z,100099.91
2022-12-18T12:57:59.421Z,100097.78
2022-12-18T13:00:30.651Z,100081.25
2022-12-18T13:03:06.042Z,100089.28
2022-12-18T13:05:43.328Z,100078.56
2022-12-18T13:08:13.303Z,100075.56
2022-12-18T13:10:42.950Z,100078.97
2022-12-18T13:13:13.531Z,100080.47
2022-12-18T13:15:47.210Z,100073.28
2022-12-18T13:18:21.506Z,100068.63
2022-12-18T13:20:58.339Z,100063.13
2022-12-18T13:23:33.348Z,100057.47
2022-12-18T13:26:28.776Z,100046.75
2022-12-18T13:28:59.255Z,100044.75
2022-12-18T13:32:10.297Z,100046.31
2022-12-18T13:34:38.598Z,100049.66
2022-12-18T13:37:46.674Z,100050.50
2022-12-18T13:40:56.622Z,100042.16
2022-12-18T13:43:36.393Z,100032.00
2022-12-18T13:46:09.642Z,100025.31
2022-12-18T13:48:41.565Z,100020.19
2022-12-18T13:51:13.179Z,100020.88
2022-12-18T13:53:50.054Z,100027.78
2022-12-18T13:56:21.603Z,100026.47
2022-12-18T13:59:08.206Z,100026.19
2022-12-18T14:01:37.206Z,100012.47
2022-12-18T14:04:12.802Z,99996.09
2022-12-18T14:06:41.689Z,100004.97
2022-12-18T14:09:21.296Z,100000.97
2022-12-18T14:11:50.644Z,99982.88
2022-12-18T14:14:20.970Z,99973.69
2022-12-18T14:16:50.265Z,99975.75
2022-12-18T14:19:20.774Z,99970.41
2022-12-18T14:21:59.158Z,99964.44
2022-12-18T14:27:28.205Z,99946.75
2022-12-18T14:29:56.305Z,99934.38
2022-12-18T14:32:28.019Z,99936.09
2022-12-18T14:38:33.932Z,99921.41
2022-12-18T14:41:13.909Z,99924.44
2022-12-18T14:44:08.048Z,99929.47
2022-12-18T14:46:53.338Z,99927.66
2022-12-18T14:49:28.509Z,99932.38
2022-12-18T14:51:58.706Z,99938.41
2022-12-18T14:54:29.892Z,99933.88
2022-12-18T14:57:04.448Z,99937.63
2022-12-18T14:59:48.159Z,99933.75
2022-12-18T15:02:33.124Z,99944.00
2022-12-18T15:05:29.009Z,99934.47
2022-12-18T15:08:00.760Z,99935.44
2022-12-18T15:10:43.240Z,99940.00
2022-12-18T15:13:36.675Z,99935.97
2022-12-18T15:19:01.323Z,99937.16
2022-12-18T15:21:41.060Z,99950.59
2022-12-18T15:38:11.525Z,99905.91
2022-12-18T15:40:48.916Z,99901.06
2022-12-18T15:43:48.887Z,99909.78
2022-12-18T15:46:24.641Z,99903.25
2022-12-18T15:49:06.767Z,99895.00
2022-12-18T15:51:57.681Z,99883.75
2022-12-18T15:54:53.934Z,99900.06
2022-12-18T15:57:37.598Z,99885.94
2022-12-18T16:03:28.611Z,99877.38
2022-12-18T16:08:58.893Z,99850.00
2022-12-18T16:11:41.724Z,99848.97
2022-12-18T16:14:19.671Z,99848.97
2022-12-18T16:16:49.181Z,99845.78
2022-12-18T16:19:17.535Z,99847.47
2022-12-18T16:21:46.257Z,99843.59
2022-12-18T16:24:18.381Z,99845.78
2022-12-18T16:26:48.551Z,99843.94
2022-12-18T16:29:17.691Z,99845.63
2022-12-18T16:31:45.925Z,99839.59
2022-12-18T16:34:16.709Z,99852.84
2022-12-18T16:36:45.188Z,99851.50
2022-12-18T16:39:13.451Z,99865.09
2022-12-18T16:41:42.341Z,99854.03
2022-12-18T16:44:17.059Z,99870.16
2022-12-18T16:47:06.730Z,99856.03
2022-12-18T16:49:37.833Z,99865.75
2022-12-18T16:52:09.567Z,99845.59
2022-12-18T16:54:40.889Z,99861.91
2022-12-18T16:57:10.574Z,99855.34
2022-12-18T16:59:40.722Z,99844.25
2022-12-18T17:02:14.328Z,99839.72
2022-12-18T17:04:43.929Z,99840.22
2022-12-18T17:07:12.723Z,99845.03
2022-12-18T17:09:41.334Z,99849.25
2022-12-18T17:12:10.039Z,99834.78
2022-12-18T17:14:40.819Z,99851.94
2022-12-18T17:17:24.937Z,99849.59
2022-12-18T17:20:12.061Z,99843.56
2022-12-18T17:22:40.265Z,99837.16
2022-12-18T17:25:10.009Z,99831.78
2022-12-18T17:27:40.532Z,99833.44
2022-12-18T17:30:14.946Z,99832.59
2022-12-18T17:32:44.994Z,99834.25
2022-12-18T17:35:22.536Z,99836.13
2022-12-18T17:37:52.841Z,99833.91
2022-12-18T17:43:21.375Z,99817.75
2022-12-18T17:45:54.540Z,99827.53
2022-12-18T17:51:22.329Z,99816.75
2022-12-18T17:59:54.202Z,99828.84
2022-12-18T18:02:52.955Z,99827.16
2022-12-18T18:05:23.447Z,99825.13
2022-12-18T18:08:08.160Z,99827.31
2022-12-18T18:10:52.318Z,99826.97
2022-12-18T18:13:46.486Z,99815.19
2022-12-18T18:16:21.322Z,99816.50
2022-12-18T18:19:15.736Z,99823.41
2022-12-18T18:24:59.070Z,99816.31
2022-12-18T18:27:42.869Z,99811.63
2022-12-18T18:30:34.021Z,99821.34
2022-12-18T18:33:11.873Z,99805.66
2022-12-18T18:35:56.301Z,99815.78
2022-12-18T18:38:25.030Z,99809.19
2022-12-18T18:43:48.839Z,99811.53
2022-12-18T18:46:21.196Z,99805.97
2022-12-18T18:48:49.920Z,99811.81
2022-12-18T18:51:41.424Z,99809.63
2022-12-18T18:54:21.264Z,99810.81
2022-12-18T18:59:41.124Z,99815.84
2022-12-18T19:02:14.516Z,99806.56
2022-12-18T19:05:17.206Z,99807.59
2022-12-18T19:08:14.116Z,99818.34
2022-12-18T19:11:07.516Z,99808.59
2022-12-18T19:19:09.706Z,99807.53
2022-12-18T19:21:42.133Z,99813.94
2022-12-18T19:24:24.166Z,99801.13
2022-12-18T19:26:58.155Z,99796.25
2022-12-18T19:29:43.358Z,99808.34
2022-12-18T19:32:26.590Z,99816.22
2022-12-18T19:38:12.949Z,99820.88
2022-12-18T19:40:55.719Z,99815.50
2022-12-18T19:43:24.760Z,99815.16
2022-12-18T19:46:04.787Z,99813.94
2022-12-18T19:48:47.171Z,99805.31
2022-12-18T19:57:49.973Z,99794.69
2022-12-18T20:00:22.489Z,99780.00
2022-12-18T20:03:24.256Z,99776.94
2022-12-18T20:06:05.049Z,99782.66
2022-12-18T20:08:54.014Z,99789.72
2022-12-18T20:11:33.702Z,99801.63
2022-12-18T20:14:36.755Z,99792.50
2022-12-18T20:20:18.063Z,99795.31
2022-12-18T20:22:49.820Z,99788.91
2022-12-18T20:25:20.422Z,99789.69
2022-12-18T20:27:57.223Z,99784.78
2022-12-18T20:30:59.587Z,99783.75
2022-12-18T20:33:28.429Z,99782.53
2022-12-18T20:36:03.521Z,99787.75
2022-12-18T20:38:33.464Z,99782.53
2022-12-18T20:41:03.180Z,99784.22
2022-12-18T20:43:31.611Z,99783.63
2022-12-18T20:46:08.364Z,99773.53
2022-12-18T20:48:43.186Z,99764.41
2022-12-18T20:51:13.763Z,99748.22
2022-12-18T20:53:46.505Z,99753.97
2022-12-18T20:56:21.367Z,99739.13
2022-12-18T21:01:50.278Z,99741.44
2022-12-18T21:04:19.505Z,99729.00
2022-12-18T21:06:57.976Z,99738.28
2022-12-18T21:09:38.171Z,99735.03
2022-12-18T21:12:32.493Z,99722.94
2022-12-18T21:15:17.069Z,99732.06
2022-12-18T21:17:48.352Z,99730.00
2022-12-18T21:20:27.111Z,99738.75
2022-12-18T21:22:57.762Z,99735.41
2022-12-18T21:25:40.883Z,99726.31
2022-12-18T21:28:17.686Z,99737.09
2022-12-18T21:30:47.020Z,99732.06
2022-12-18T21:33:25.358Z,99742.66
2022-12-18T21:35:53.490Z,99736.53
2022-12-18T21:38:23.685Z,99729.56
2022-12-18T21:40:51.969Z,99735.31
2022-12-18T21:43:37.310Z,99726.03
2022-12-18T21:46:05.423Z,99738.00
2022-12-18T21:48:38.455Z,99741.94
2022-12-18T21:51:06.728Z,99735.31
2022-12-18T21:53:35.931Z,99728.25
2022-12-18T21:56:08.417Z,99725.56
2022-12-18T21:58:38.862Z,99728.44
2022-12-18T22:01:36.639Z,99725.75
2022-12-18T22:04:29.023Z,99718.66
2022-12-18T22:06:58.910Z,99737.38
2022-12-18T22:12:43.180Z,99740.22
2022-12-18T22:15:26.175Z,99741.09
2022-12-18T22:17:59.765Z,99746.91
2022-12-18T22:20:42.265Z,99736.34
2022-12-18T22:23:14.771Z,99740.69
2022-12-18T22:25:46.441Z,99749.47
2022-12-18T22:28:33.786Z,99749.25
2022-12-18T22:31:02.194Z,99750.94
2022-12-18T22:33:30.695Z,99750.09
2022-12-18T22:36:10.407Z,99762.53
2022-12-18T22:38:41.150Z,99764.22
2022-12-18T22:41:10.630Z,99750.00
2022-12-18T22:43:39.131Z,99774.09
2022-12-18T22:46:09.022Z,99753.34
2022-12-18T22:48:37.091Z,99756.03
2022-12-18T22:51:14.630Z,99764.97
2022-12-18T22:53:43.732Z,99764.34
2022-12-18T22:56:20.106Z,99764.34
2022-12-18T22:58:52.690Z,99760.41
2022-12-18T23:01:22.996Z,99768.69
2022-12-18T23:03:52.379Z,99766.34
2022-12-18T23:06:30.722Z,99762.00
2022-12-18T23:08:59.857Z,99774.84
2022-12-18T23:11:29.039Z,99772.31
2022-12-18T23:13:57.590Z,99772.50
2022-12-18T23:16:32.372Z,99765.25
2022-12-18T23:19:01.554Z,99784.66
2022-12-18T23:21:31.225Z,99773.03
2022-12-18T23:24:00.317Z,99766.47
2022-12-18T23:26:30.290Z,99769.16
2022-12-18T23:28:58.496Z,99775.56
2022-12-18T23:31:30.011Z,99789.69
2022-12-18T23:33:59.893Z,99788.66
2022-12-18T23:36:28.389Z,99790.34
2022-12-18T23:39:01.755Z,99785.97
2022-12-18T23:41:33.340Z,99785.63
2022-12-18T23:44:02.105Z,99775.47
2022-12-18T23:46:33.375Z,99777.97
2022-12-18T23:49:04.143Z,99779.19
2022-12-18T23:51:39.118Z,99770.75
2022-12-18T23:54:22.691Z,99773.59
2022-12-18T23:57:02.499Z,99769.44
2022-12-18T23:59:31.263Z,99774.44
